Terminal Aerodrome Forecast
Issued by NWS

Home | Current Version | Previous Version | Text Only | Print | Product List | Glossary On
Versions: 1 2 3 4 5 6 7 8 9 10 11 12 13 14 15 16 17 18 19 20
000
FTUS43 KGRR 251900 AAA
TAFLAN
TAF AMD
KLAN 251901Z 2519/2618 05012G20KT P6SM BKN045
     FM260200 05006KT P6SM FEW025 SCT200=

USA.gov is the U.S. government's official web portal to all federal, state and local government web resources and services.